createdAt,value
2022-08-20T00:02:10.632Z,98559.63
2022-08-20T00:04:39.709Z,98568.69
2022-08-20T00:07:08.380Z,98575.81
2022-08-20T00:09:36.660Z,98570.25
2022-08-20T00:12:07.673Z,98579.34
2022-08-20T00:14:35.278Z,98575.97
2022-08-20T00:17:04.151Z,98583.16
2022-08-20T00:19:32.006Z,98578.25
2022-08-20T00:21:59.169Z,98580.09
2022-08-20T00:24:26.381Z,98584.97
2022-08-20T00:26:53.800Z,98592.84
2022-08-20T00:29:22.347Z,98587.41
2022-08-20T00:31:50.504Z,98590.31
2022-08-20T00:34:18.043Z,98589.72
2022-08-20T00:36:45.265Z,98585.94
2022-08-20T00:39:12.792Z,98584.19
2022-08-20T00:41:40.239Z,98585.41
2022-08-20T00:44:12.380Z,98586.41
2022-08-20T00:46:40.654Z,98591.00
2022-08-20T00:49:17.587Z,98587.25
2022-08-20T00:51:53.373Z,98574.50
2022-08-20T00:54:21.688Z,98574.00
2022-08-20T00:56:57.220Z,98571.34
2022-08-20T00:59:26.104Z,98561.34
2022-08-20T01:01:55.151Z,98557.56
2022-08-20T01:04:24.963Z,98556.22
2022-08-20T01:06:52.189Z,98559.19
2022-08-20T01:09:49.628Z,98565.41
2022-08-20T01:12:07.297Z,98566.06
2022-08-20T01:14:34.691Z,98566.69
2022-08-20T01:17:03.568Z,98580.12
2022-08-20T01:19:33.379Z,98565.72
2022-08-20T01:22:01.086Z,98558.03
2022-08-20T01:24:32.284Z,98569.44
2022-08-20T01:26:59.454Z,98552.91
2022-08-20T01:29:27.998Z,98556.53
2022-08-20T01:32:01.203Z,98549.28
2022-08-20T01:34:28.825Z,98553.59
2022-08-20T01:36:57.470Z,98535.09
2022-08-20T01:39:26.168Z,98531.72
2022-08-20T01:42:00.964Z,98533.59
2022-08-20T01:44:28.286Z,98543.97
2022-08-20T01:46:59.636Z,98525.06
2022-08-20T01:49:28.225Z,98550.44
2022-08-20T01:51:56.010Z,98548.72
2022-08-20T01:54:23.515Z,98547.13
2022-08-20T01:57:09.712Z,98544.56
2022-08-20T01:59:37.418Z,98536.09
2022-08-20T02:02:07.107Z,98535.84
2022-08-20T02:04:34.639Z,98533.19
2022-08-20T02:07:04.259Z,98524.66
2022-08-20T02:09:33.231Z,98515.13
2022-08-20T02:12:00.886Z,98499.91
2022-08-20T02:14:28.152Z,98500.81
2022-08-20T02:16:58.410Z,98515.37
2022-08-20T02:19:32.812Z,98519.25
2022-08-20T02:22:00.514Z,98528.06
2022-08-20T02:24:28.042Z,98517.50
2022-08-20T02:26:55.252Z,98509.53
2022-08-20T02:29:22.721Z,98510.50
2022-08-20T02:32:32.190Z,98515.84
2022-08-20T02:34:37.357Z,98524.13
2022-08-20T02:37:05.677Z,98543.44
2022-08-20T02:39:33.088Z,98547.91
2022-08-20T02:42:02.825Z,98545.69
2022-08-20T02:44:30.867Z,98536.75
2022-08-20T02:46:58.419Z,98528.75
2022-08-20T02:49:25.598Z,98538.50
2022-08-20T02:51:53.041Z,98538.53
2022-08-20T02:54:21.234Z,98537.16
2022-08-20T02:56:48.390Z,98537.06
2022-08-20T02:59:19.654Z,98544.41
2022-08-20T03:01:48.460Z,98550.47
2022-08-20T03:04:27.412Z,98552.31
2022-08-20T03:06:54.614Z,98578.56
2022-08-20T03:09:21.891Z,98624.38
2022-08-20T03:11:49.385Z,98655.81
2022-08-20T03:14:16.580Z,98646.97
2022-08-20T03:16:43.772Z,98633.72
2022-08-20T03:19:11.200Z,98631.63
2022-08-20T03:21:38.395Z,98637.53
2022-08-20T03:24:05.623Z,98641.72
2022-08-20T03:26:33.048Z,98644.34
2022-08-20T03:29:00.230Z,98662.19
2022-08-20T03:31:27.395Z,98662.53
2022-08-20T03:33:54.839Z,98649.06
2022-08-20T03:36:28.371Z,98651.56
2022-08-20T03:38:57.524Z,98656.97
2022-08-20T03:41:24.766Z,98647.81
2022-08-20T03:43:52.513Z,98656.34
2022-08-20T03:46:22.077Z,98636.44
2022-08-20T03:48:59.623Z,98644.13
2022-08-20T03:51:28.893Z,98631.59
2022-08-20T03:53:56.334Z,98631.19
2022-08-20T03:56:23.504Z,98634.03
2022-08-20T03:58:50.960Z,98634.72
2022-08-20T04:01:44.189Z,98627.13
2022-08-20T04:04:05.943Z,98631.59
2022-08-20T04:06:40.460Z,98638.72
2022-08-20T04:09:09.580Z,98644.34
2022-08-20T04:11:39.937Z,98644.81
2022-08-20T04:14:07.158Z,98639.84
2022-08-20T04:16:34.756Z,98603.38
2022-08-20T04:19:03.526Z,98603.34
2022-08-20T04:21:33.006Z,98595.94
2022-08-20T04:24:02.359Z,98600.41
2022-08-20T04:26:29.572Z,98596.06
2022-08-20T04:28:57.226Z,98602.81
2022-08-20T04:31:25.365Z,98602.53
2022-08-20T04:33:52.850Z,98596.66
2022-08-20T04:36:20.022Z,98594.56
2022-08-20T04:38:50.554Z,98600.66
2022-08-20T04:41:22.662Z,98616.66
2022-08-20T04:43:53.127Z,98621.44
2022-08-20T04:46:20.448Z,98609.91
2022-08-20T04:48:49.215Z,98595.94
2022-08-20T04:51:18.249Z,98598.09
2022-08-20T04:53:52.344Z,98603.97
2022-08-20T04:56:26.070Z,98616.84
2022-08-20T04:58:57.215Z,98623.41
2022-08-20T05:01:25.989Z,98629.53
2022-08-20T05:03:56.353Z,98627.91
2022-08-20T05:06:28.670Z,98630.09
2022-08-20T05:08:56.395Z,98627.84
2022-08-20T05:11:32.853Z,98625.81
2022-08-20T05:14:05.280Z,98627.97
2022-08-20T05:16:37.942Z,98629.84
2022-08-20T05:19:06.830Z,98626.88
2022-08-20T05:21:34.333Z,98613.34
2022-08-20T05:24:02.951Z,98616.41
2022-08-20T05:26:30.413Z,98634.88
2022-08-20T05:28:59.246Z,98631.41
2022-08-20T05:31:31.475Z,98621.75
2022-08-20T05:34:02.054Z,98616.84
2022-08-20T05:36:29.343Z,98603.78
2022-08-20T05:38:56.567Z,98602.88
2022-08-20T05:41:27.720Z,98605.09
2022-08-20T05:43:57.574Z,98612.56
2022-08-20T05:46:25.045Z,98605.69
2022-08-20T05:48:52.205Z,98600.41
2022-08-20T05:51:19.450Z,98607.63
2022-08-20T05:53:47.165Z,98595.53
2022-08-20T05:56:14.456Z,98613.56
2022-08-20T05:58:41.634Z,98611.06
2022-08-20T06:01:09.171Z,98605.00
2022-08-20T06:03:55.345Z,98606.66
2022-08-20T06:06:45.214Z,98600.31
2022-08-20T06:09:13.209Z,98598.37
2022-08-20T06:11:40.412Z,98598.56
2022-08-20T06:14:07.635Z,98627.63
2022-08-20T06:16:37.121Z,98612.19
2022-08-20T06:19:05.435Z,98614.25
2022-08-20T06:21:32.671Z,98619.53
2022-08-20T06:24:02.019Z,98622.44
2022-08-20T06:26:29.663Z,98617.81
2022-08-20T06:29:01.869Z,98624.97
2022-08-20T06:31:29.347Z,98633.94
2022-08-20T06:33:57.052Z,98636.13
2022-08-20T06:36:25.011Z,98653.00
2022-08-20T06:38:54.997Z,98675.44
2022-08-20T06:41:22.178Z,98672.75
2022-08-20T06:43:49.363Z,98662.84
2022-08-20T06:46:17.207Z,98656.56
2022-08-20T06:48:44.436Z,98650.31
2022-08-20T06:51:11.655Z,98667.78
2022-08-20T06:53:39.194Z,98693.34
2022-08-20T06:56:06.694Z,98689.09
2022-08-20T06:58:38.325Z,98709.94
2022-08-20T07:01:10.605Z,98697.53
2022-08-20T07:03:38.756Z,98701.12
2022-08-20T07:06:06.431Z,98714.38
2022-08-20T07:08:33.613Z,98712.69
2022-08-20T07:11:01.166Z,98711.81
2022-08-20T07:13:28.841Z,98726.88
2022-08-20T07:15:56.069Z,98711.50
2022-08-20T07:18:28.130Z,98705.81
2022-08-20T07:20:57.434Z,98707.41
2022-08-20T07:23:25.490Z,98709.22
2022-08-20T07:25:52.979Z,98715.50
2022-08-20T07:28:21.235Z,98719.22
2022-08-20T07:31:13.765Z,98728.53
2022-08-20T07:33:42.029Z,98735.06
2022-08-20T07:36:09.420Z,98750.56
2022-08-20T07:38:36.685Z,98760.81
2022-08-20T07:41:05.328Z,98772.03
2022-08-20T07:43:34.106Z,98779.72
2022-08-20T07:46:02.157Z,98787.59
2022-08-20T07:48:32.132Z,98776.00
2022-08-20T07:51:00.684Z,98771.69
2022-08-20T07:53:30.222Z,98781.50
2022-08-20T07:56:02.793Z,98789.94
2022-08-20T07:58:33.390Z,98814.00
2022-08-20T08:01:01.287Z,98824.75
2022-08-20T08:03:39.449Z,98836.66
2022-08-20T08:06:17.249Z,98839.88
2022-08-20T08:08:55.616Z,98833.72
2022-08-20T08:11:22.835Z,98812.03
2022-08-20T08:13:50.004Z,98810.41
2022-08-20T08:16:17.698Z,98823.16
2022-08-20T08:18:45.554Z,98827.97
2022-08-20T08:21:13.098Z,98837.50
2022-08-20T08:23:44.702Z,98831.66
2022-08-20T08:26:17.812Z,98825.91
2022-08-20T08:28:46.742Z,98819.69
2022-08-20T08:31:14.755Z,98809.34
2022-08-20T08:33:42.017Z,98807.19
2022-08-20T08:36:11.051Z,98810.91
2022-08-20T08:38:39.125Z,98817.13
2022-08-20T08:41:13.870Z,98805.47
2022-08-20T08:43:43.667Z,98792.19
2022-08-20T08:46:11.308Z,98763.78
2022-08-20T08:48:39.692Z,98762.22
2022-08-20T08:51:12.462Z,98748.59
2022-08-20T08:53:42.304Z,98747.41
2022-08-20T08:56:10.074Z,98769.31
2022-08-20T08:58:37.301Z,98776.50
2022-08-20T09:01:09.861Z,98773.75
2022-08-20T09:03:56.406Z,98772.38
2022-08-20T09:06:24.002Z,98750.66
2022-08-20T09:08:53.331Z,98732.81
2022-08-20T09:11:23.067Z,98741.00
2022-08-20T09:13:56.288Z,98753.31
2022-08-20T09:16:24.279Z,98766.63
2022-08-20T09:18:53.249Z,98780.19
2022-08-20T09:21:20.464Z,98794.13
2022-08-20T09:23:47.922Z,98803.19
2022-08-20T09:26:17.903Z,98806.41
2022-08-20T09:28:51.234Z,98800.53
2022-08-20T09:31:19.751Z,98793.28
2022-08-20T09:33:49.738Z,98788.91
2022-08-20T09:36:31.528Z,98784.50
2022-08-20T09:39:00.476Z,98788.25
2022-08-20T09:41:27.839Z,98793.97
2022-08-20T09:43:54.987Z,98794.47
2022-08-20T09:46:26.974Z,98789.72
2022-08-20T09:48:55.169Z,98793.50
2022-08-20T09:51:22.802Z,98779.56
2022-08-20T09:53:49.983Z,98766.66
2022-08-20T09:56:17.216Z,98759.25
2022-08-20T09:58:48.697Z,98739.75
2022-08-20T10:01:16.246Z,98719.09
2022-08-20T10:03:44.105Z,98708.59
2022-08-20T10:06:11.463Z,98694.34
2022-08-20T10:08:38.644Z,98680.13
2022-08-20T10:11:06.300Z,98660.53
2022-08-20T10:13:33.491Z,98655.81
2022-08-20T10:16:00.712Z,98635.22
2022-08-20T10:18:28.145Z,98629.00
2022-08-20T10:20:55.329Z,98632.16
2022-08-20T10:23:22.528Z,98633.69
2022-08-20T10:25:49.963Z,98644.50
2022-08-20T10:28:17.203Z,98655.84
2022-08-20T10:30:45.223Z,98667.22
2022-08-20T10:33:12.752Z,98669.31
2022-08-20T10:35:39.923Z,98682.69
2022-08-20T10:38:07.101Z,98692.50
2022-08-20T10:40:34.532Z,98696.13
2022-08-20T10:43:02.076Z,98721.50
2022-08-20T10:45:29.266Z,98721.34
2022-08-20T10:47:59.113Z,98726.97
2022-08-20T10:50:26.375Z,98722.53
2022-08-20T10:52:58.070Z,98720.13
2022-08-20T10:55:25.249Z,98729.00
2022-08-20T10:57:52.482Z,98745.31
2022-08-20T11:00:20.037Z,98747.59
2022-08-20T11:02:47.225Z,98759.31
2022-08-20T11:05:14.436Z,98756.22
2022-08-20T11:07:55.046Z,98763.84
2022-08-20T11:10:25.571Z,98756.13
2022-08-20T11:12:52.995Z,98753.03
2022-08-20T11:15:20.259Z,98755.44
2022-08-20T11:17:47.576Z,98750.75
2022-08-20T11:20:15.987Z,98754.19
2022-08-20T11:22:43.201Z,98755.59
2022-08-20T11:25:10.696Z,98759.72
2022-08-20T11:27:44.355Z,98768.47
2022-08-20T11:30:13.203Z,98761.41
2022-08-20T11:32:40.675Z,98764.75
2022-08-20T11:35:38.538Z,98748.12
2022-08-20T11:37:56.677Z,98754.78
2022-08-20T11:40:24.492Z,98753.03
2022-08-20T11:43:13.568Z,98743.06
2022-08-20T11:45:39.258Z,98736.72
2022-08-20T11:48:08.726Z,98734.78
2022-08-20T11:50:35.921Z,98727.09
2022-08-20T11:53:03.424Z,98721.94
2022-08-20T11:55:34.022Z,98713.22
2022-08-20T11:58:05.130Z,98721.97
2022-08-20T12:00:33.973Z,98714.09
2022-08-20T12:03:09.072Z,98718.63
2022-08-20T12:05:37.673Z,98722.88
2022-08-20T12:08:05.128Z,98718.69
2022-08-20T12:10:32.547Z,98715.72
2022-08-20T12:12:59.937Z,98712.69
2022-08-20T12:15:30.191Z,98709.88
2022-08-20T12:17:59.250Z,98695.72
2022-08-20T12:20:26.490Z,98698.28
2022-08-20T12:22:54.587Z,98693.19
2022-08-20T12:25:24.491Z,98688.34
2022-08-20T12:27:51.663Z,98685.81
2022-08-20T12:30:21.767Z,98677.50
2022-08-20T12:32:49.238Z,98672.69
2022-08-20T12:35:17.503Z,98663.88
2022-08-20T12:37:45.243Z,98666.00
2022-08-20T12:40:15.733Z,98667.28
2022-08-20T12:42:43.007Z,98654.94
2022-08-20T12:45:11.670Z,98648.44
2022-08-20T12:47:40.539Z,98642.16
2022-08-20T12:50:09.197Z,98638.91
2022-08-20T12:52:38.946Z,98634.88
2022-08-20T12:55:06.967Z,98637.53
2022-08-20T12:57:44.305Z,98619.88
2022-08-20T13:00:16.636Z,98620.66
2022-08-20T13:02:49.043Z,98616.09
2022-08-20T13:05:16.937Z,98607.66
2022-08-20T13:07:44.506Z,98617.81
2022-08-20T13:10:12.799Z,98614.47
2022-08-20T13:12:40.391Z,98615.25
2022-08-20T13:15:10.918Z,98619.03
2022-08-20T13:17:39.688Z,98618.44
2022-08-20T13:20:09.140Z,98616.03
2022-08-20T13:22:36.524Z,98623.50
2022-08-20T13:25:04.578Z,98628.91
2022-08-20T13:27:32.225Z,98615.25
2022-08-20T13:29:59.819Z,98616.75
2022-08-20T13:32:27.566Z,98617.69
2022-08-20T13:34:55.000Z,98617.06
2022-08-20T13:37:25.562Z,98603.16
2022-08-20T13:39:53.742Z,98610.53
2022-08-20T13:42:21.514Z,98610.19
2022-08-20T13:44:48.702Z,98610.09
2022-08-20T13:47:15.813Z,98613.78
2022-08-20T13:49:43.360Z,98624.72
2022-08-20T13:52:10.591Z,98625.59
2022-08-20T13:54:38.260Z,98629.06
2022-08-20T13:57:10.757Z,98635.06
2022-08-20T13:59:38.996Z,98638.53
2022-08-20T14:02:07.529Z,98647.75
2022-08-20T14:04:35.179Z,98643.03
2022-08-20T14:07:32.203Z,98641.84
2022-08-20T14:10:02.007Z,98626.63
2022-08-20T14:12:30.626Z,98593.81
2022-08-20T14:14:58.149Z,98595.84
2022-08-20T14:17:27.728Z,98605.84
2022-08-20T14:20:00.647Z,98615.22
2022-08-20T14:22:28.972Z,98620.16
2022-08-20T14:24:56.690Z,98621.56
2022-08-20T14:27:27.822Z,98618.19
2022-08-20T14:29:58.267Z,98608.00
2022-08-20T14:32:25.747Z,98620.28
2022-08-20T14:34:53.361Z,98614.63
2022-08-20T14:37:22.097Z,98610.09
2022-08-20T14:39:50.528Z,98610.19
2022-08-20T14:42:17.967Z,98609.62
2022-08-20T14:44:45.450Z,98614.13
2022-08-20T14:47:23.262Z,98603.88
2022-08-20T14:49:51.149Z,98606.53
2022-08-20T14:52:19.628Z,98602.59
2022-08-20T14:54:47.366Z,98603.03
2022-08-20T14:57:15.413Z,98606.25
2022-08-20T14:59:42.660Z,98601.13
2022-08-20T15:02:10.435Z,98608.84
2022-08-20T15:04:37.954Z,98621.84
2022-08-20T15:07:08.245Z,98619.19
2022-08-20T15:09:40.573Z,98622.03
2022-08-20T15:12:07.843Z,98620.50
2022-08-20T15:14:35.053Z,98615.44
2022-08-20T15:17:06.748Z,98624.97
2022-08-20T15:19:33.947Z,98614.06
2022-08-20T15:22:01.245Z,98619.47
2022-08-20T15:24:28.844Z,98620.63
2022-08-20T15:26:56.037Z,98613.47
2022-08-20T15:29:23.661Z,98620.00
2022-08-20T15:31:51.296Z,98625.12
2022-08-20T15:34:18.625Z,98620.41
2022-08-20T15:36:45.949Z,98624.81
2022-08-20T15:39:13.398Z,98625.50
2022-08-20T15:41:40.579Z,98623.59
2022-08-20T15:44:07.751Z,98628.37
2022-08-20T15:46:36.386Z,98624.62
2022-08-20T15:49:07.961Z,98628.59
2022-08-20T15:51:38.548Z,98624.28
2022-08-20T15:54:24.270Z,98629.91
2022-08-20T15:57:01.399Z,98633.81
2022-08-20T15:59:41.046Z,98642.78
2022-08-20T16:02:28.344Z,98639.91
2022-08-20T16:04:59.808Z,98638.13
2022-08-20T16:07:58.241Z,98642.22
2022-08-20T16:10:25.634Z,98643.72
2022-08-20T16:12:54.688Z,98650.16
2022-08-20T16:15:29.566Z,98654.31
2022-08-20T16:18:03.629Z,98652.84
2022-08-20T16:20:40.182Z,98661.06
2022-08-20T16:23:07.847Z,98649.69
2022-08-20T16:25:50.249Z,98655.66
2022-08-20T16:28:24.999Z,98662.56
2022-08-20T16:31:13.886Z,98663.06
2022-08-20T16:33:42.930Z,98657.84
2022-08-20T16:36:11.565Z,98658.84
2022-08-20T16:38:41.051Z,98665.53
2022-08-20T16:41:21.048Z,98666.16
2022-08-20T16:43:53.101Z,98668.72
2022-08-20T16:46:21.731Z,98666.28
2022-08-20T16:48:51.781Z,98664.44
2022-08-20T16:51:38.923Z,98649.69
2022-08-20T16:54:07.041Z,98650.81
2022-08-20T16:56:47.928Z,98658.63
2022-08-20T16:59:18.344Z,98664.69
2022-08-20T17:02:01.585Z,98662.41
2022-08-20T17:04:32.187Z,98674.16
2022-08-20T17:07:04.409Z,98665.44
2022-08-20T17:09:36.630Z,98667.37
2022-08-20T17:12:24.513Z,98665.94
2022-08-20T17:14:53.202Z,98669.38
2022-08-20T17:17:31.817Z,98666.50
2022-08-20T17:20:01.163Z,98666.72
2022-08-20T17:22:28.992Z,98667.41
2022-08-20T17:24:56.823Z,98659.94
2022-08-20T17:27:42.561Z,98666.66
2022-08-20T17:30:20.274Z,98665.50
2022-08-20T17:32:48.891Z,98671.09
2022-08-20T17:35:40.668Z,98657.56
2022-08-20T17:38:08.098Z,98669.63
2022-08-20T17:40:45.766Z,98667.56
2022-08-20T17:43:25.250Z,98666.09
2022-08-20T17:45:52.496Z,98670.09
2022-08-20T17:48:40.183Z,98660.16
2022-08-20T17:51:17.745Z,98662.31
2022-08-20T17:53:55.332Z,98659.91
2022-08-20T17:56:26.409Z,98653.19
2022-08-20T17:58:56.504Z,98647.84
2022-08-20T18:01:25.952Z,98641.41
2022-08-20T18:03:53.615Z,98648.38
2022-08-20T18:06:30.841Z,98643.63
2022-08-20T18:09:23.376Z,98642.50
2022-08-20T18:12:24.202Z,98643.84
2022-08-20T18:15:24.533Z,98644.31
2022-08-20T18:17:56.068Z,98637.75
2022-08-20T18:20:42.413Z,98632.31
2022-08-20T18:23:23.750Z,98629.00
2022-08-20T18:26:04.991Z,98629.91
2022-08-20T18:28:38.370Z,98631.03
2022-08-20T18:31:08.864Z,98627.75
2022-08-20T18:33:42.188Z,98631.69
2022-08-20T18:36:26.559Z,98635.03
2022-08-20T18:38:56.872Z,98648.53
2022-08-20T18:41:29.257Z,98647.69
2022-08-20T18:44:02.535Z,98647.91
2022-08-20T18:46:30.742Z,98642.75
2022-08-20T18:48:59.749Z,98643.94
2022-08-20T18:51:34.526Z,98645.31
2022-08-20T18:54:02.104Z,98646.31
2022-08-20T18:56:30.641Z,98644.19
2022-08-20T18:58:59.772Z,98651.19
2022-08-20T19:01:27.525Z,98648.84
2022-08-20T19:03:55.541Z,98647.44
2022-08-20T19:06:29.179Z,98640.19
2022-08-20T19:08:56.596Z,98651.69
2022-08-20T19:11:30.447Z,98655.94
2022-08-20T19:14:07.490Z,98652.44
2022-08-20T19:16:36.332Z,98649.06
2022-08-20T19:19:03.800Z,98650.25
2022-08-20T19:21:37.571Z,98643.31
2022-08-20T19:24:06.165Z,98643.94
2022-08-20T19:26:39.188Z,98642.16
2022-08-20T19:29:10.891Z,98638.38
2022-08-20T19:31:38.431Z,98637.97
2022-08-20T19:34:19.008Z,98638.41
2022-08-20T19:37:28.164Z,98643.87
2022-08-20T19:39:52.536Z,98633.59
2022-08-20T19:42:24.739Z,98630.81
2022-08-20T19:44:54.037Z,98626.97
2022-08-20T19:47:24.561Z,98628.22
2022-08-20T19:49:51.880Z,98633.38
2022-08-20T19:52:25.789Z,98642.63
2022-08-20T19:54:54.393Z,98637.72
2022-08-20T19:57:22.139Z,98632.81
2022-08-20T20:00:05.498Z,98636.94
2022-08-20T20:02:33.472Z,98636.47
2022-08-20T20:05:04.180Z,98627.13
2022-08-20T20:07:40.458Z,98622.50
2022-08-20T20:10:09.786Z,98622.19
2022-08-20T20:12:36.971Z,98619.72
2022-08-20T20:15:05.281Z,98616.22
2022-08-20T20:17:34.258Z,98610.56
2022-08-20T20:20:03.094Z,98611.28
2022-08-20T20:22:31.257Z,98613.63
2022-08-20T20:25:18.286Z,98614.41
2022-08-20T20:27:48.009Z,98613.81
2022-08-20T20:30:15.995Z,98608.66
2022-08-20T20:32:44.453Z,98609.44
2022-08-20T20:35:12.122Z,98612.69
2022-08-20T20:37:50.740Z,98620.31
2022-08-20T20:40:23.257Z,98621.44
2022-08-20T20:42:58.601Z,98624.47
2022-08-20T20:45:29.571Z,98620.00
2022-08-20T20:47:57.000Z,98620.69
2022-08-20T20:50:26.954Z,98616.00
2022-08-20T20:52:57.264Z,98614.22
2022-08-20T20:55:30.780Z,98614.81
2022-08-20T20:57:58.299Z,98621.19
2022-08-20T21:00:27.291Z,98623.66
2022-08-20T21:02:54.867Z,98605.84
2022-08-20T21:05:24.944Z,98621.50
2022-08-20T21:07:52.416Z,98610.34
2022-08-20T21:10:20.650Z,98608.72
2022-08-20T21:12:52.477Z,98608.38
2022-08-20T21:15:21.294Z,98613.63
2022-08-20T21:17:48.527Z,98620.13
2022-08-20T21:20:16.073Z,98629.28
2022-08-20T21:22:45.556Z,98624.56
2022-08-20T21:25:13.388Z,98615.22
2022-08-20T21:27:41.948Z,98619.00
2022-08-20T21:30:09.520Z,98618.81
2022-08-20T21:32:36.780Z,98621.87
2022-08-20T21:35:06.104Z,98615.47
2022-08-20T21:37:33.589Z,98627.06
2022-08-20T21:40:00.816Z,98626.72
2022-08-20T21:42:29.278Z,98609.56
2022-08-20T21:44:58.087Z,98614.72
2022-08-20T21:47:25.575Z,98614.59
2022-08-20T21:49:53.028Z,98608.00
2022-08-20T21:52:20.535Z,98605.47
2022-08-20T21:54:47.729Z,98608.84
2022-08-20T21:57:18.665Z,98610.88
2022-08-20T21:59:46.199Z,98613.09
2022-08-20T22:02:13.482Z,98614.72
2022-08-20T22:04:41.240Z,98617.38
2022-08-20T22:07:08.466Z,98615.53
2022-08-20T22:09:36.439Z,98626.41
2022-08-20T22:12:04.225Z,98615.53
2022-08-20T22:14:31.390Z,98616.31
2022-08-20T22:16:58.566Z,98625.41
2022-08-20T22:19:26.012Z,98613.56
2022-08-20T22:21:53.363Z,98622.19
2022-08-20T22:24:20.539Z,98612.16
2022-08-20T22:26:48.009Z,98621.37
2022-08-20T22:29:15.196Z,98617.47
2022-08-20T22:31:42.896Z,98615.97
2022-08-20T22:34:11.005Z,98615.50
2022-08-20T22:36:38.135Z,98610.06
2022-08-20T22:39:05.449Z,98616.13
2022-08-20T22:41:32.910Z,98605.44
2022-08-20T22:44:00.132Z,98609.91
2022-08-20T22:46:28.091Z,98605.78
2022-08-20T22:48:55.662Z,98600.69
2022-08-20T22:51:34.692Z,98604.34
2022-08-20T22:54:02.970Z,98599.53
2022-08-20T22:56:30.147Z,98600.47
2022-08-20T22:58:59.186Z,98600.22
2022-08-20T23:01:27.242Z,98602.09
2022-08-20T23:03:54.968Z,98589.13
2022-08-20T23:06:22.414Z,98590.34
2022-08-20T23:08:50.091Z,98584.50
2022-08-20T23:11:17.474Z,98576.19
2022-08-20T23:13:44.667Z,98576.72
2022-08-20T23:16:12.128Z,98580.59
2022-08-20T23:18:39.286Z,98576.19
2022-08-20T23:21:06.463Z,98575.87
2022-08-20T23:23:33.952Z,98580.81
2022-08-20T23:26:01.151Z,98569.38
2022-08-20T23:28:28.338Z,98570.56
2022-08-20T23:30:55.851Z,98574.19
2022-08-20T23:33:23.023Z,98572.09
2022-08-20T23:35:50.205Z,98563.00
2022-08-20T23:38:17.665Z,98566.75
2022-08-20T23:40:44.828Z,98560.41
2022-08-20T23:43:11.993Z,98561.59
2022-08-20T23:45:40.099Z,98557.66
2022-08-20T23:48:07.881Z,98557.84
2022-08-20T23:50:35.156Z,98547.66
2022-08-20T23:53:03.075Z,98553.31
2022-08-20T23:55:30.306Z,98551.66
2022-08-20T23:57:57.516Z,98557.84
